Time;durP1;ratioP1;P1;durP2;ratioP2;P2;SDS_P1;SDS_P2;PMS_P1;PMS_P2;Temp;Humidity;BMP_temperature;BMP_pressure;BME280_temperature;BME280_humidity;BME280_pressure;Samples;Min_cycle;Max_cycle;Signal;HPM_P1;HPM_P2
2021/03/29 00:02:12;;;;;;;6.97;3.30;;;4.90;99.90;;;;;;8362907;28;19949;-67
2021/03/29 00:06:13;;;;;;;6.25;3.42;;;4.60;99.90;;;;;;8363046;28;20037;-67
2021/03/29 00:10:15;;;;;;;6.60;3.42;;;4.70;99.90;;;;;;8361897;28;20025;-67
2021/03/29 00:14:16;;;;;;;8.38;3.50;;;4.70;99.90;;;;;;8363011;28;20082;-67
2021/03/29 00:18:18;;;;;;;6.82;3.60;;;4.70;99.90;;;;;;8362927;28;20033;-67
2021/03/29 00:22:19;;;;;;;5.03;2.90;;;4.50;99.90;;;;;;8362489;28;20060;-67
2021/03/29 00:26:20;;;;;;;5.57;3.70;;;4.30;99.90;;;;;;8351717;28;20106;-67
2021/03/29 00:30:35;;;;;;;5.90;3.13;;;4.20;99.90;;;;;;8362514;28;20033;-67
2021/03/29 00:34:36;;;;;;;5.10;3.47;;;4.30;99.90;;;;;;8336585;28;20061;-67
2021/03/29 00:38:38;;;;;;;8.93;3.38;;;4.40;99.90;;;;;;8325389;28;20040;-67
2021/03/29 00:42:40;;;;;;;5.82;2.80;;;4.40;99.90;;;;;;8312423;28;20014;-67
2021/03/29 00:46:42;;;;;;;5.22;3.00;;;4.60;99.90;;;;;;8328219;28;20032;-67
2021/03/29 00:50:53;;;;;;;6.30;3.22;;;4.40;99.90;;;;;;8327279;28;20025;-67
2021/03/29 00:54:55;;;;;;;9.25;3.50;;;4.10;99.90;;;;;;8329754;28;20041;-68
2021/03/29 00:58:57;;;;;;;5.50;3.40;;;4.10;99.90;;;;;;8334260;28;20026;-68
2021/03/29 01:02:58;;;;;;;5.63;3.17;;;4.20;99.90;;;;;;8328023;28;20079;-67
2021/03/29 01:06:59;;;;;;;7.68;3.70;;;4.40;99.90;;;;;;8328497;28;20026;-67
2021/03/29 01:11:03;;;;;;;10.60;3.53;;;4.40;99.90;;;;;;8329020;28;20400;-67
2021/03/29 01:15:05;;;;;;;5.88;3.45;;;4.30;99.90;;;;;;8328080;28;20476;-67
2021/03/29 01:19:43;;;;;;;9.30;3.50;;;4.20;99.90;;;;;;8328621;28;20029;-67
2021/03/29 01:23:44;;;;;;;6.28;3.40;;;4.10;99.90;;;;;;8292825;28;20034;-68
2021/03/29 01:27:52;;;;;;;6.18;3.20;;;4.10;99.90;;;;;;8328024;28;20040;-67
2021/03/29 01:31:53;;;;;;;9.40;3.63;;;4.20;99.90;;;;;;8326886;28;20033;-67
2021/03/29 01:35:58;;;;;;;6.32;3.38;;;4.50;99.90;;;;;;8327320;28;20539;-67
2021/03/29 01:39:58;;;;;;;7.70;3.20;;;4.50;99.90;;;;;;8327580;28;20029;-67
2021/03/29 01:44:00;;;;;;;5.18;3.35;;;4.30;99.90;;;;;;8327182;28;20022;-67
2021/03/29 01:48:03;;;;;;;6.43;3.78;;;4.10;99.90;;;;;;8326312;28;20018;-67
2021/03/29 01:52:05;;;;;;;6.80;3.78;;;4.00;99.90;;;;;;8327546;28;20060;-67
2021/03/29 01:56:05;;;;;;;6.22;3.38;;;4.00;99.90;;;;;;8324226;28;20068;-67
2021/03/29 02:00:22;;;;;;;5.55;3.33;;;3.80;99.90;;;;;;8325593;28;20028;-68
2021/03/29 02:04:22;;;;;;;6.43;3.45;;;3.70;99.90;;;;;;8292995;28;20152;-67
2021/03/29 02:08:24;;;;;;;4.60;3.10;;;3.60;99.90;;;;;;8292486;28;20025;-67
2021/03/29 02:12:25;;;;;;;5.75;3.08;;;3.40;99.90;;;;;;8317686;28;20029;-68
2021/03/29 02:16:29;;;;;;;4.75;2.78;;;3.30;99.90;;;;;;8323462;28;20056;-67
2021/03/29 02:20:33;;;;;;;5.60;2.85;;;3.10;99.90;;;;;;8324658;28;20445;-67
2021/03/29 02:24:34;;;;;;;7.47;2.88;;;3.00;99.90;;;;;;8325840;28;20045;-67
2021/03/29 02:28:35;;;;;;;5.88;3.22;;;3.00;99.90;;;;;;8357591;28;20645;-67
2021/03/29 02:32:39;;;;;;;6.20;3.13;;;2.90;99.90;;;;;;8316397;28;20021;-67
2021/03/29 02:36:41;;;;;;;4.70;2.70;;;2.80;99.90;;;;;;8307728;28;20025;-68
2021/03/29 02:40:42;;;;;;;8.75;3.22;;;2.80;99.90;;;;;;8322107;28;20644;-67
2021/03/29 02:44:43;;;;;;;5.60;3.05;;;2.80;99.90;;;;;;8325493;28;20029;-67
2021/03/29 02:48:46;;;;;;;5.82;3.47;;;2.60;99.90;;;;;;8325944;28;20025;-67
2021/03/29 02:52:50;;;;;;;6.38;3.20;;;2.50;99.90;;;;;;8324875;28;20040;-67
2021/03/29 02:56:52;;;;;;;6.07;3.70;;;2.40;99.90;;;;;;8337816;22;20046;-63
2021/03/29 03:00:53;;;;;;;5.30;3.22;;;2.30;99.90;;;;;;8300392;28;20025;-63
2021/03/29 03:04:55;;;;;;;7.00;3.30;;;2.20;99.90;;;;;;8307120;28;20033;-62
2021/03/29 03:08:58;;;;;;;22.60;10.20;;;2.20;99.90;;;;;;8292268;28;20057;-63
2021/03/29 03:13:03;;;;;;;14.07;6.85;;;2.20;99.90;;;;;;8293177;28;20034;-63
2021/03/29 03:17:04;;;;;;;7.15;3.88;;;2.20;99.90;;;;;;8293073;28;20037;-63
2021/03/29 03:21:05;;;;;;;7.80;4.00;;;2.20;99.90;;;;;;8292719;28;20045;-62
2021/03/29 03:25:30;;;;;;;12.57;6.80;;;2.30;99.90;;;;;;8293332;28;20026;-62
2021/03/29 03:29:33;;;;;;;11.45;5.88;;;2.60;99.90;;;;;;8293027;28;20034;-62
2021/03/29 03:33:33;;;;;;;10.00;5.20;;;2.40;99.90;;;;;;8301013;28;20072;-63
2021/03/29 03:37:36;;;;;;;7.72;4.85;;;2.30;99.90;;;;;;8295769;28;20025;-63
2021/03/29 03:41:37;;;;;;;10.02;5.20;;;2.10;99.90;;;;;;8291483;28;20034;-63
2021/03/29 03:45:51;;;;;;;8.93;3.90;;;2.10;99.90;;;;;;8291913;28;20014;-63
2021/03/29 03:49:52;;;;;;;9.65;4.47;;;2.10;99.90;;;;;;8292398;28;20041;-62
2021/03/29 03:53:53;;;;;;;9.43;4.93;;;2.10;99.90;;;;;;8290650;28;20076;-62
2021/03/29 03:57:54;;;;;;;12.02;5.93;;;2.10;99.90;;;;;;8294760;28;20108;-63
2021/03/29 04:02:02;;;;;;;10.85;5.47;;;2.20;99.90;;;;;;8292205;28;20044;-63
2021/03/29 04:06:03;;;;;;;7.88;5.43;;;2.30;99.90;;;;;;8292259;28;20126;-62
2021/03/29 04:10:15;;;;;;;8.35;5.18;;;2.50;99.90;;;;;;8290647;28;20385;-62
2021/03/29 04:14:16;;;;;;;7.00;3.47;;;2.20;99.90;;;;;;8298403;28;20030;-63
2021/03/29 04:18:17;;;;;;;7.57;4.72;;;2.00;99.90;;;;;;8298743;28;20022;-63
2021/03/29 04:22:17;;;;;;;7.75;3.90;;;2.00;99.90;;;;;;8298265;28;20084;-63
2021/03/29 04:26:18;;;;;;;11.27;4.90;;;2.00;99.90;;;;;;8299521;28;20396;-63
2021/03/29 04:30:19;;;;;;;6.57;4.32;;;1.90;99.90;;;;;;8300373;28;20040;-63
2021/03/29 04:34:19;;;;;;;9.95;4.40;;;1.90;99.90;;;;;;8308507;28;20037;-63
2021/03/29 04:38:20;;;;;;;12.38;5.03;;;1.70;99.90;;;;;;8301640;28;20028;-63
2021/03/29 04:42:20;;;;;;;8.85;4.75;;;1.50;99.90;;;;;;8297105;28;20017;-63
2021/03/29 04:46:21;;;;;;;11.23;5.20;;;1.50;99.90;;;;;;8298174;28;20025;-63
2021/03/29 04:50:23;;;;;;;10.48;5.07;;;1.40;99.90;;;;;;8298162;28;20026;-63
2021/03/29 04:54:23;;;;;;;11.48;4.90;;;1.40;99.90;;;;;;8297512;28;20396;-63
2021/03/29 04:58:24;;;;;;;9.77;5.07;;;1.20;99.90;;;;;;8295008;28;20058;-63
2021/03/29 05:02:25;;;;;;;8.85;4.70;;;1.20;99.90;;;;;;8295381;28;20120;-63
2021/03/29 05:06:29;;;;;;;9.85;4.53;;;1.10;99.90;;;;;;8297210;28;20028;-63
2021/03/29 05:10:30;;;;;;;6.47;3.67;;;1.00;99.90;;;;;;8296901;28;20496;-63
2021/03/29 05:14:31;;;;;;;6.57;4.05;;;1.40;99.90;;;;;;8295958;28;20472;-63
2021/03/29 05:18:32;;;;;;;9.35;3.58;;;1.20;99.90;;;;;;8300348;28;20072;-63
2021/03/29 05:22:33;;;;;;;9.20;3.60;;;1.10;99.90;;;;;;8312342;28;20512;-63
2021/03/29 05:26:34;;;;;;;9.93;4.47;;;1.20;99.90;;;;;;8296379;28;20097;-63
2021/03/29 05:30:34;;;;;;;9.15;5.22;;;1.70;99.90;;;;;;8295229;28;20080;-63
2021/03/29 05:34:35;;;;;;;14.40;4.53;;;1.90;99.90;;;;;;8294312;28;20480;-63
2021/03/29 05:38:35;;;;;;;8.05;4.00;;;4.20;99.90;;;;;;8295681;28;20117;-62
2021/03/29 05:42:36;;;;;;;7.80;3.78;;;7.10;99.90;;;;;;8299130;28;20026;-62
2021/03/29 05:46:41;;;;;;;7.93;3.92;;;6.90;99.90;;;;;;8299964;28;20049;-62
2021/03/29 05:50:42;;;;;;;8.18;3.92;;;6.30;99.90;;;;;;8303161;28;20097;-62
2021/03/29 05:54:43;;;;;;;5.32;3.65;;;5.40;99.90;;;;;;8290401;28;20448;-62
2021/03/29 05:58:55;;;;;;;6.82;3.63;;;4.70;99.90;;;;;;8294553;28;20091;-63
2021/03/29 06:03:36;;;;;;;7.28;3.67;;;4.50;99.90;;;;;;8290817;28;20052;-63
2021/03/29 06:07:36;;;;;;;165.43;151.57;;;4.40;99.90;;;;;;8289247;28;20097;-63
2021/03/29 06:11:40;;;;;;;188.85;175.77;;;4.10;99.90;;;;;;8293732;28;20022;-63
2021/03/29 06:15:41;;;;;;;298.25;281.85;;;3.90;99.90;;;;;;8292571;28;20109;-62
2021/03/29 06:20:00;;;;;;;267.48;252.90;;;3.80;99.90;;;;;;8290819;28;20033;-64
2021/03/29 06:24:00;;;;;;;280.98;265.17;;;3.80;99.90;;;;;;8290297;28;20191;-64
2021/03/29 06:28:01;;;;;;;259.02;243.15;;;4.10;99.90;;;;;;8293490;28;20034;-63
2021/03/29 06:32:02;;;;;;;156.82;146.95;;;4.50;99.90;;;;;;8293170;28;20042;-63
2021/03/29 06:36:02;;;;;;;259.73;242.90;;;4.60;99.90;;;;;;8292661;28;20403;-64
2021/03/29 06:40:07;;;;;;;273.38;256.58;;;4.70;99.90;;;;;;8289499;28;20034;-63
2021/03/29 06:44:34;;;;;;;209.88;197.18;;;4.90;99.90;;;;;;8289806;28;20141;-63
2021/03/29 06:48:37;;;;;;;234.48;219.73;;;5.20;99.90;;;;;;8306725;28;20022;-64
2021/03/29 06:52:38;;;;;;;209.95;197.57;;;5.40;99.90;;;;;;8288676;28;20052;-63
2021/03/29 06:56:41;;;;;;;224.63;211.65;;;5.80;99.90;;;;;;8288858;28;20554;-63
2021/03/29 07:00:41;;;;;;;230.88;217.68;;;6.40;99.90;;;;;;8291964;28;20112;-63
2021/03/29 07:04:42;;;;;;;213.68;201.13;;;6.60;99.90;;;;;;8291795;28;20025;-62
2021/03/29 07:08:45;;;;;;;151.60;142.40;;;6.80;99.90;;;;;;8292532;28;20038;-63
2021/03/29 07:12:46;;;;;;;176.38;166.00;;;7.20;99.90;;;;;;8288653;28;20033;-63
2021/03/29 07:16:47;;;;;;;168.52;158.68;;;7.60;99.90;;;;;;8292344;28;20485;-62
2021/03/29 07:20:49;;;;;;;185.30;174.02;;;8.10;99.90;;;;;;8290302;28;20037;-64
2021/03/29 07:24:52;;;;;;;174.82;164.27;;;7.90;99.90;;;;;;8283900;28;20038;-63
2021/03/29 07:28:54;;;;;;;171.15;161.00;;;7.80;99.90;;;;;;8289644;28;20049;-63
2021/03/29 07:32:58;;;;;;;179.30;168.82;;;8.00;99.90;;;;;;8292329;28;20117;-63
2021/03/29 07:36:58;;;;;;;166.52;156.77;;;8.70;99.90;;;;;;8291440;28;20484;-63
2021/03/29 07:40:59;;;;;;;190.23;179.07;;;9.00;99.90;;;;;;8291566;28;20045;-63
2021/03/29 07:45:03;;;;;;;167.00;157.00;;;9.10;99.90;;;;;;8288822;28;20046;-64
2021/03/29 07:49:03;;;;;;;169.70;159.63;;;9.10;99.90;;;;;;8296674;28;20408;-63
2021/03/29 07:53:21;;;;;;;165.90;155.85;;;9.30;99.90;;;;;;8293144;28;20041;-63
2021/03/29 07:57:43;;;;;;;160.88;151.35;;;9.60;99.90;;;;;;8289592;28;20065;-63
2021/03/29 08:02:04;;;;;;;169.52;159.75;;;10.40;99.90;;;;;;8297977;28;20105;-63
2021/03/29 08:06:06;;;;;;;171.27;161.13;;;10.80;99.90;;;;;;8297688;28;20132;-63
2021/03/29 08:10:10;;;;;;;165.38;156.02;;;11.20;99.90;;;;;;8311481;28;20037;-63
2021/03/29 08:14:28;;;;;;;146.57;137.90;;;11.30;99.90;;;;;;8294051;28;20511;-64
2021/03/29 08:18:28;;;;;;;152.23;143.45;;;11.30;99.90;;;;;;8295544;28;20040;-63
2021/03/29 08:22:29;;;;;;;155.57;146.45;;;11.20;99.90;;;;;;8300679;28;20029;-63
2021/03/29 08:26:37;;;;;;;158.55;149.32;;;11.50;99.90;;;;;;8304843;28;20018;-63
2021/03/29 08:30:41;;;;;;;147.00;138.45;;;11.90;99.90;;;;;;8315515;28;20557;-63
2021/03/29 08:34:50;;;;;;;143.30;135.13;;;12.30;99.90;;;;;;8301650;28;20032;-62
2021/03/29 08:38:50;;;;;;;123.68;116.18;;;12.80;99.90;;;;;;8296110;28;20057;-63
2021/03/29 08:42:57;;;;;;;130.75;123.03;;;12.80;99.90;;;;;;8294670;28;20550;-63
2021/03/29 08:46:58;;;;;;;135.60;127.50;;;12.90;99.90;;;;;;8297468;28;20521;-64
2021/03/29 08:50:58;;;;;;;146.73;138.18;;;13.00;99.90;;;;;;8308736;28;20022;-63
2021/03/29 08:54:59;;;;;;;151.98;143.05;;;13.00;99.90;;;;;;8304880;28;20038;-64
2021/03/29 08:59:00;;;;;;;151.45;142.55;;;13.10;99.90;;;;;;8291907;28;20713;-64
2021/03/29 09:03:00;;;;;;;147.32;138.70;;;13.30;98.10;;;;;;8299934;28;20057;-63
2021/03/29 09:07:01;;;;;;;145.38;136.90;;;13.40;96.40;;;;;;8306098;28;20037;-63
2021/03/29 09:11:01;;;;;;;141.30;132.88;;;13.30;96.40;;;;;;8291088;28;20081;-62
2021/03/29 09:15:03;;;;;;;133.02;125.18;;;13.50;95.40;;;;;;8280802;28;20029;-63
2021/03/29 09:19:15;;;;;;;134.07;126.20;;;13.50;94.90;;;;;;8276301;28;20061;-63
2021/03/29 09:23:22;;;;;;;139.40;131.05;;;13.70;93.60;;;;;;8282781;28;20100;-63
2021/03/29 09:27:30;;;;;;;135.18;127.45;;;13.70;92.80;;;;;;8283619;28;20049;-63
2021/03/29 09:31:35;;;;;;;135.93;128.20;;;13.90;93.10;;;;;;8284354;28;20177;-63
2021/03/29 09:35:36;;;;;;;143.60;135.38;;;14.40;92.10;;;;;;8282147;28;20019;-63
2021/03/29 09:39:38;;;;;;;140.65;132.35;;;14.50;91.40;;;;;;8281103;28;20030;-63
2021/03/29 09:43:44;;;;;;;140.40;132.25;;;14.90;92.00;;;;;;8283899;28;20018;-62
2021/03/29 09:47:58;;;;;;;140.40;132.20;;;14.80;90.30;;;;;;8289037;28;20073;-63
2021/03/29 09:52:04;;;;;;;129.80;122.22;;;14.90;86.80;;;;;;8291785;28;20034;-63
2021/03/29 09:56:05;;;;;;;121.43;114.43;;;14.80;87.30;;;;;;8296684;28;20201;-63
2021/03/29 10:00:12;;;;;;;105.30;99.20;;;15.00;85.60;;;;;;8284414;28;20393;-63
2021/03/29 10:04:14;;;;;;;107.70;101.53;;;14.90;80.60;;;;;;8300379;28;20029;-63
2021/03/29 10:08:25;;;;;;;120.95;114.15;;;15.00;78.90;;;;;;8306044;28;20014;-63
2021/03/29 10:12:28;;;;;;;207.95;196.02;;;15.30;87.20;;;;;;8298113;28;20045;-63
2021/03/29 10:16:28;;;;;;;203.02;191.43;;;15.50;80.50;;;;;;8294841;28;20095;-63
2021/03/29 10:20:35;;;;;;;197.68;186.65;;;15.60;79.60;;;;;;8302111;28;20033;-63
2021/03/29 10:24:55;;;;;;;200.50;189.60;;;15.80;78.20;;;;;;8297055;28;20022;-62
2021/03/29 10:29:01;;;;;;;215.23;203.20;;;16.10;78.30;;;;;;8284636;28;20033;-63
2021/03/29 10:33:04;;;;;;;97.18;91.70;;;16.60;80.20;;;;;;8267274;28;20500;-63
2021/03/29 10:37:27;;;;;;;76.07;71.93;;;16.50;70.70;;;;;;8269716;28;20076;-63
2021/03/29 10:41:28;;;;;;;44.20;41.60;;;16.50;74.90;;;;;;8273496;28;20060;-62
2021/03/29 10:45:29;;;;;;;5.88;2.40;;;16.90;68.90;;;;;;8272316;28;20026;-63
2021/03/29 10:49:29;;;;;;;4.65;2.30;;;17.10;68.00;;;;;;8272807;28;20025;-63
2021/03/29 10:53:30;;;;;;;4.82;2.30;;;17.20;68.00;;;;;;8280760;28;20064;-63
2021/03/29 10:57:31;;;;;;;4.97;2.13;;;17.40;68.30;;;;;;8274749;28;20810;-63
2021/03/29 11:01:31;;;;;;;4.68;2.58;;;17.60;62.50;;;;;;8292632;28;20083;-63
2021/03/29 11:05:32;;;;;;;5.28;2.30;;;18.90;60.30;;;;;;8284506;28;20022;-63
2021/03/29 11:09:33;;;;;;;3.00;1.88;;;21.60;53.50;;;;;;8276448;28;20034;-63
2021/03/29 11:13:34;;;;;;;2.85;1.75;;;24.60;41.60;;;;;;8282845;28;20104;-63
2021/03/29 11:17:37;;;;;;;3.38;2.22;;;25.90;38.80;;;;;;8282830;28;20042;-65
2021/03/29 11:21:38;;;;;;;2.53;2.10;;;26.30;34.10;;;;;;8293155;28;20026;-65
2021/03/29 11:25:39;;;;;;;5.13;2.33;;;26.30;35.50;;;;;;8302900;28;20022;-65
2021/03/29 11:29:39;;;;;;;3.60;2.40;;;28.00;32.90;;;;;;8296983;28;20508;-65
2021/03/29 11:33:40;;;;;;;3.42;1.98;;;29.20;31.30;;;;;;8303787;28;20030;-65
2021/03/29 11:37:40;;;;;;;41.70;25.48;;;30.70;27.60;;;;;;8306387;28;20026;-65
2021/03/29 11:41:41;;;;;;;2.50;1.85;;;29.70;28.60;;;;;;8298218;28;20088;-65
2021/03/29 11:45:42;;;;;;;3.35;2.25;;;28.90;29.90;;;;;;8297480;28;20049;-65
2021/03/29 11:49:43;;;;;;;4.00;1.83;;;30.40;27.50;;;;;;8297162;28;20064;-64
2021/03/29 11:53:43;;;;;;;3.72;2.10;;;30.00;27.30;;;;;;8297871;28;20029;-63
2021/03/29 11:57:45;;;;;;;6.00;2.80;;;29.40;26.50;;;;;;8293249;28;20480;-64
2021/03/29 12:01:52;;;;;;;2.88;2.08;;;30.30;26.20;;;;;;8295957;28;20361;-64
2021/03/29 12:05:56;;;;;;;2.80;1.90;;;31.30;25.60;;;;;;8301494;28;20056;-62
2021/03/29 12:14:17;;;;;;;3.05;2.50;;;30.00;27.50;;;;;;8296217;28;20526;-63
2021/03/29 12:18:33;;;;;;;3.83;2.13;;;31.10;26.60;;;;;;8297874;28;20049;-64
2021/03/29 12:22:35;;;;;;;5.32;2.10;;;32.00;25.20;;;;;;8297143;28;20033;-64
2021/03/29 12:26:36;;;;;;;3.28;2.00;;;32.90;25.10;;;;;;8295027;28;20120;-64
2021/03/29 12:30:39;;;;;;;4.22;1.52;;;32.70;24.80;;;;;;8298434;28;20100;-63
2021/03/29 12:34:46;;;;;;;2.00;1.70;;;33.70;25.60;;;;;;8302699;28;20632;-63
2021/03/29 12:38:59;;;;;;;5.88;2.10;;;31.60;25.00;;;;;;8296028;28;20084;-62
2021/03/29 12:47:03;;;;;;;3.45;1.90;;;29.20;31.60;;;;;;8296677;28;20504;-63
2021/03/29 12:51:06;;;;;;;4.47;1.70;;;30.30;26.60;;;;;;8295560;28;20117;-63
2021/03/29 12:55:14;;;;;;;2.67;1.73;;;30.10;30.20;;;;;;8296445;28;20125;-63
2021/03/29 12:59:14;;;;;;;5.05;2.00;;;31.00;26.20;;;;;;8284359;28;20030;-64
2021/03/29 13:03:17;;;;;;;4.07;2.00;;;31.90;24.80;;;;;;8288362;28;20556;-63
2021/03/29 13:11:26;;;;;;;2.78;1.77;;;33.10;25.20;;;;;;8301635;28;20061;-63
2021/03/29 13:15:27;;;;;;;3.70;2.17;;;33.80;24.30;;;;;;8296698;28;20180;-63
2021/03/29 13:19:28;;;;;;;3.47;2.03;;;33.00;25.50;;;;;;8278222;28;20026;-63
2021/03/29 13:23:30;;;;;;;2.35;2.00;;;32.30;25.80;;;;;;8294383;28;20037;-63
2021/03/29 13:27:31;;;;;;;4.47;2.35;;;32.60;25.70;;;;;;8294399;28;20022;-63
2021/03/29 13:31:31;;;;;;;4.05;2.28;;;30.50;26.40;;;;;;8293670;28;20033;-63
2021/03/29 13:35:34;;;;;;;5.50;2.67;;;31.90;26.00;;;;;;8293930;28;20028;-63
2021/03/29 13:39:36;;;;;;;4.60;2.30;;;31.80;28.00;;;;;;8285925;28;20048;-63
2021/03/29 13:43:39;;;;;;;3.75;2.05;;;32.90;26.10;;;;;;8293228;28;20439;-63
2021/03/29 13:47:41;;;;;;;3.97;2.42;;;33.50;24.90;;;;;;8285797;28;20448;-63
2021/03/29 13:51:44;;;;;;;3.05;2.28;;;32.30;25.10;;;;;;8282420;28;20759;-65
2021/03/29 13:55:44;;;;;;;4.25;2.50;;;32.30;24.80;;;;;;8290840;28;20034;-64
2021/03/29 13:59:45;;;;;;;4.63;2.08;;;33.40;25.20;;;;;;8283867;28;20037;-64
2021/03/29 14:03:46;;;;;;;4.68;2.20;;;34.90;24.50;;;;;;8288452;28;20105;-64
2021/03/29 14:07:47;;;;;;;3.50;2.20;;;35.40;24.20;;;;;;8291936;28;20026;-64
2021/03/29 14:11:47;;;;;;;5.30;2.17;;;36.60;23.40;;;;;;8287840;28;20028;-63
2021/03/29 14:15:49;;;;;;;2.50;2.10;;;35.70;22.60;;;;;;8284945;28;20037;-64
2021/03/29 14:19:50;;;;;;;4.45;1.90;;;36.50;21.50;;;;;;8290836;28;20068;-64
2021/03/29 14:23:52;;;;;;;8.15;2.42;;;36.70;22.40;;;;;;8290683;28;20026;-63
2021/03/29 14:27:53;;;;;;;5.40;2.00;;;36.10;22.20;;;;;;8288156;28;20381;-63
2021/03/29 14:31:54;;;;;;;3.17;2.00;;;35.90;22.80;;;;;;8288581;28;20099;-63
2021/03/29 14:40:48;;;;;;;4.63;2.33;;;35.70;21.90;;;;;;8294130;28;20022;-64
2021/03/29 14:44:55;;;;;;;2.90;2.30;;;35.20;22.90;;;;;;8289353;28;20049;-64
2021/03/29 14:48:49;;;;;;;3.65;2.13;;;35.70;22.40;;;;;;8288900;28;20040;-64
2021/03/29 14:52:50;;;;;;;4.20;2.13;;;34.20;23.60;;;;;;8291938;28;20378;-63
2021/03/29 14:56:51;;;;;;;3.97;2.40;;;34.20;23.70;;;;;;8291589;28;20026;-64
2021/03/29 15:00:51;;;;;;;4.15;1.90;;;32.60;24.10;;;;;;8290845;28;20453;-64
2021/03/29 15:04:53;;;;;;;3.15;1.90;;;33.10;24.30;;;;;;8293188;28;20022;-64
2021/03/29 15:08:54;;;;;;;3.28;1.67;;;33.70;23.00;;;;;;8288743;28;20087;-64
2021/03/29 15:12:55;;;;;;;2.15;1.77;;;34.10;23.50;;;;;;8280663;28;20449;-64
2021/03/29 15:16:56;;;;;;;5.13;2.10;;;33.70;23.10;;;;;;8296274;28;20057;-64
2021/03/29 15:20:56;;;;;;;4.10;1.77;;;32.80;24.40;;;;;;8300642;28;20408;-64
2021/03/29 15:24:57;;;;;;;3.47;2.15;;;31.60;24.70;;;;;;8297325;28;20026;-63
2021/03/29 15:28:57;;;;;;;4.22;2.03;;;30.20;25.30;;;;;;8294997;28;20072;-64
2021/03/29 15:32:58;;;;;;;3.72;2.30;;;30.40;26.10;;;;;;8290749;28;20033;-64
2021/03/29 15:37:01;;;;;;;3.65;2.08;;;30.00;26.60;;;;;;8291376;28;20039;-63
2021/03/29 15:41:02;;;;;;;3.55;2.10;;;29.10;27.30;;;;;;8293549;28;20049;-64
2021/03/29 15:45:05;;;;;;;4.75;2.08;;;28.90;27.80;;;;;;8280137;28;20033;-63
2021/03/29 15:49:06;;;;;;;3.53;2.13;;;28.50;28.70;;;;;;8290642;28;20412;-64
2021/03/29 15:53:08;;;;;;;3.90;2.20;;;29.50;27.30;;;;;;8298320;28;20025;-63
2021/03/29 15:57:10;;;;;;;9.90;2.20;;;29.60;26.10;;;;;;8301540;28;20545;-64
2021/03/29 16:01:12;;;;;;;3.28;2.00;;;27.80;28.20;;;;;;8301513;28;20135;-63
2021/03/29 16:05:14;;;;;;;4.43;1.88;;;29.00;27.30;;;;;;8262646;28;20542;-63
2021/03/29 16:09:14;;;;;;;2.78;2.00;;;30.10;26.80;;;;;;8309156;28;20048;-64
2021/03/29 16:13:15;;;;;;;3.58;1.88;;;30.10;25.90;;;;;;8316419;28;20105;-63
2021/03/29 16:17:16;;;;;;;2.75;2.13;;;29.40;26.40;;;;;;8300896;28;20037;-64
2021/03/29 16:21:16;;;;;;;3.05;1.60;;;29.20;26.10;;;;;;8312129;28;20076;-64
2021/03/29 16:25:23;;;;;;;2.90;1.83;;;29.50;26.60;;;;;;8301293;28;20682;-65
2021/03/29 16:29:24;;;;;;;4.18;2.00;;;30.00;25.80;;;;;;8304234;28;20029;-63
2021/03/29 16:33:25;;;;;;;2.97;1.65;;;31.50;25.80;;;;;;8298630;28;20033;-63
2021/03/29 16:37:26;;;;;;;2.67;1.65;;;31.00;25.10;;;;;;8307161;28;20025;-63
2021/03/29 16:41:26;;;;;;;3.63;1.70;;;28.20;26.70;;;;;;8313275;28;20033;-64
2021/03/29 16:45:29;;;;;;;3.60;1.80;;;26.00;29.70;;;;;;8311460;28;20516;-64
2021/03/29 16:49:29;;;;;;;3.42;1.50;;;24.90;30.40;;;;;;8293178;28;20450;-64
2021/03/29 16:53:31;;;;;;;2.58;1.80;;;23.70;33.50;;;;;;8297571;28;20029;-63
2021/03/29 16:57:33;;;;;;;5.68;1.55;;;22.80;35.30;;;;;;8296168;28;20036;-63
2021/03/29 17:01:33;;;;;;;4.80;2.03;;;21.90;37.10;;;;;;8296268;28;20022;-64
2021/03/29 17:05:34;;;;;;;4.60;1.73;;;21.40;38.70;;;;;;8296916;28;20038;-63
2021/03/29 17:09:35;;;;;;;5.80;2.17;;;21.00;39.90;;;;;;8299174;28;20038;-64
2021/03/29 17:13:35;;;;;;;2.83;1.70;;;20.40;42.60;;;;;;8299424;28;20057;-65
2021/03/29 17:17:37;;;;;;;3.20;1.77;;;20.00;43.70;;;;;;8306111;28;20025;-64
2021/03/29 17:21:39;;;;;;;4.38;2.00;;;19.80;44.80;;;;;;8321815;28;20035;-64
2021/03/29 17:25:39;;;;;;;6.38;2.35;;;19.50;46.20;;;;;;8326157;28;20014;-64
2021/03/29 17:29:40;;;;;;;5.68;2.40;;;19.30;47.80;;;;;;8327287;28;20045;-64
2021/03/29 17:33:41;;;;;;;3.95;2.20;;;18.90;49.00;;;;;;8327332;28;20112;-64
2021/03/29 17:37:42;;;;;;;5.28;2.22;;;18.50;50.40;;;;;;8327828;28;20025;-64
2021/03/29 17:41:43;;;;;;;2.88;2.40;;;18.10;53.10;;;;;;8332632;28;20036;-63
2021/03/29 17:45:44;;;;;;;9.15;2.70;;;17.90;56.10;;;;;;8328762;28;20054;-64
2021/03/29 17:49:44;;;;;;;4.25;2.70;;;17.60;55.70;;;;;;8326254;28;20034;-63
2021/03/29 17:53:45;;;;;;;5.80;2.97;;;17.30;57.30;;;;;;8323305;28;20036;-64
2021/03/29 17:57:45;;;;;;;11.02;4.90;;;16.90;58.60;;;;;;8322015;28;20506;-65
2021/03/29 18:01:46;;;;;;;21.10;9.93;;;;;;;;;;8314927;28;20029;-64
2021/03/29 18:05:48;;;;;;;42.88;21.95;;;;;;;;;;8320039;28;20037;-64
2021/03/29 18:09:48;;;;;;;36.97;19.55;;;15.90;62.10;;;;;;8307416;28;20030;-64
2021/03/29 18:13:49;;;;;;;32.17;17.38;;;;;;;;;;8307935;28;20041;-64
2021/03/29 18:17:50;;;;;;;36.00;18.65;;;15.30;66.60;;;;;;8297617;28;20140;-64
2021/03/29 18:21:51;;;;;;;41.90;24.23;;;15.00;69.20;;;;;;8322342;28;20057;-63
2021/03/29 18:25:51;;;;;;;27.55;14.88;;;15.00;69.10;;;;;;8307336;28;20125;-64
2021/03/29 18:29:53;;;;;;;24.90;13.77;;;14.80;72.70;;;;;;8299382;28;20100;-63
2021/03/29 18:33:53;;;;;;;25.63;14.68;;;14.50;75.10;;;;;;8289324;28;20034;-64
2021/03/29 18:37:54;;;;;;;15.88;8.52;;;13.90;78.30;;;;;;8290480;28;20029;-64
2021/03/29 18:41:55;;;;;;;15.10;9.07;;;13.50;82.00;;;;;;8297459;28;20549;-63
2021/03/29 18:45:56;;;;;;;14.25;6.35;;;13.30;85.30;;;;;;8297574;28;20062;-64
2021/03/29 18:49:56;;;;;;;13.68;5.82;;;13.30;87.20;;;;;;8302140;28;20038;-63
2021/03/29 18:53:57;;;;;;;9.63;4.65;;;13.10;88.70;;;;;;8300352;28;20404;-64
2021/03/29 18:57:58;;;;;;;10.32;3.88;;;12.80;90.70;;;;;;8307527;28;20048;-63
2021/03/29 19:02:02;;;;;;;12.93;3.47;;;12.30;93.00;;;;;;8313812;28;20107;-64
2021/03/29 19:06:07;;;;;;;12.82;3.63;;;12.20;94.60;;;;;;8291985;28;20045;-64
2021/03/29 19:10:09;;;;;;;11.93;4.40;;;12.00;96.60;;;;;;8291517;28;20053;-63
2021/03/29 19:14:09;;;;;;;10.57;4.78;;;11.80;97.40;;;;;;8289740;28;20084;-63
2021/03/29 19:18:11;;;;;;;11.43;5.80;;;11.60;98.80;;;;;;8319280;28;20616;-64
2021/03/29 19:22:11;;;;;;;9.52;5.75;;;11.50;99.90;;;;;;8324724;28;20044;-64
2021/03/29 19:26:20;;;;;;;10.63;5.80;;;11.40;99.90;;;;;;8322180;28;20038;-64
2021/03/29 19:30:22;;;;;;;17.90;7.30;;;11.30;99.90;;;;;;8318219;28;20459;-64
2021/03/29 19:34:25;;;;;;;13.50;4.72;;;11.10;99.90;;;;;;8321759;28;20078;-64
2021/03/29 19:38:26;;;;;;;12.35;6.82;;;11.00;99.90;;;;;;8320320;28;20073;-64
2021/03/29 19:42:27;;;;;;;9.68;6.28;;;10.90;99.90;;;;;;8324563;28;20067;-64
2021/03/29 19:46:29;;;;;;;9.35;6.55;;;10.70;99.90;;;;;;8328533;28;20028;-64
2021/03/29 19:50:30;;;;;;;14.05;7.43;;;10.30;99.90;;;;;;8341814;28;20021;-64
2021/03/29 19:54:31;;;;;;;13.65;6.63;;;10.20;99.90;;;;;;8325199;28;20048;-64
2021/03/29 19:58:32;;;;;;;13.15;5.00;;;10.00;99.90;;;;;;8331596;28;20132;-64
2021/03/29 20:02:33;;;;;;;20.95;7.18;;;9.60;99.90;;;;;;8338303;28;20159;-64
2021/03/29 20:06:41;;;;;;;11.88;6.50;;;9.50;99.90;;;;;;8333895;28;20029;-64
2021/03/29 20:10:43;;;;;;;13.35;8.32;;;9.40;99.90;;;;;;8328709;28;20029;-64
2021/03/29 20:14:45;;;;;;;11.23;7.22;;;9.20;99.90;;;;;;8331606;28;20755;-64
2021/03/29 20:18:46;;;;;;;9.63;6.50;;;9.10;99.90;;;;;;8331517;28;20033;-64
2021/03/29 20:22:47;;;;;;;9.60;5.45;;;9.00;99.90;;;;;;8333685;28;20104;-64
2021/03/29 20:26:48;;;;;;;7.65;5.38;;;8.80;99.90;;;;;;8338659;28;20109;-64
2021/03/29 20:30:48;;;;;;;10.07;5.20;;;8.90;99.90;;;;;;8330845;28;20052;-64
2021/03/29 20:34:49;;;;;;;7.72;5.03;;;9.00;99.90;;;;;;8336116;28;20060;-64
2021/03/29 20:38:51;;;;;;;7.30;4.80;;;9.00;99.90;;;;;;8336835;28;20025;-63
2021/03/29 20:42:52;;;;;;;6.63;4.43;;;8.90;99.90;;;;;;8326468;28;20619;-64
2021/03/29 20:46:54;;;;;;;9.88;5.18;;;8.70;99.90;;;;;;8341680;28;20022;-63
2021/03/29 20:50:55;;;;;;;8.70;4.63;;;8.60;99.90;;;;;;8329612;28;20025;-64
2021/03/29 20:54:58;;;;;;;8.38;4.10;;;8.40;99.90;;;;;;8339235;28;20294;-64
2021/03/29 20:58:59;;;;;;;10.20;4.28;;;8.00;99.90;;;;;;8348805;28;20064;-64
2021/03/29 21:02:59;;;;;;;7.85;4.22;;;7.90;99.90;;;;;;8359413;28;20025;-64
2021/03/29 21:07:00;;;;;;;8.43;4.43;;;7.80;99.90;;;;;;8359053;28;20025;-64
2021/03/29 21:11:01;;;;;;;8.30;4.15;;;7.90;99.90;;;;;;8358129;28;20037;-64